sensor_id;sensor_type;location;lat;lon;timestamp;pressure;altitude;pressure_sealevel;temperature;humidity
38289;BME280;24092;53.370;-6.588;2023-02-10T00:01:28;102809.96;;;-1.61;100.00
38289;BME280;24092;53.370;-6.588;2023-02-10T00:03:56;102805.08;;;-1.45;100.00
38289;BME280;24092;53.370;-6.588;2023-02-10T00:06:25;102801.87;;;-1.59;100.00
38289;BME280;24092;53.370;-6.588;2023-02-10T00:08:55;102799.91;;;-2.13;100.00
38289;BME280;24092;53.370;-6.588;2023-02-10T00:11:24;102796.81;;;-2.00;100.00
38289;BME280;24092;53.370;-6.588;2023-02-10T00:13:52;102804.07;;;-2.07;100.00
38289;BME280;24092;53.370;-6.588;2023-02-10T00:16:19;102805.88;;;-2.36;100.00
38289;BME280;24092;53.370;-6.588;2023-02-10T00:18:46;102810.31;;;-1.52;100.00
38289;BME280;24092;53.370;-6.588;2023-02-10T00:21:16;102813.48;;;-1.73;100.00
38289;BME280;24092;53.370;-6.588;2023-02-10T00:23:43;102813.17;;;-2.10;100.00
38289;BME280;24092;53.370;-6.588;2023-02-10T00:26:11;102811.16;;;-2.37;100.00
38289;BME280;24092;53.370;-6.588;2023-02-10T00:28:39;102809.64;;;-2.15;100.00
38289;BME280;24092;53.370;-6.588;2023-02-10T00:31:07;102808.27;;;-1.83;100.00
38289;BME280;24092;53.370;-6.588;2023-02-10T00:33:34;102807.41;;;-2.57;100.00
38289;BME280;24092;53.370;-6.588;2023-02-10T00:36:03;102805.85;;;-2.15;100.00
38289;BME280;24092;53.370;-6.588;2023-02-10T00:38:30;102802.20;;;-1.40;100.00
38289;BME280;24092;53.370;-6.588;2023-02-10T00:41:02;102796.68;;;-2.01;100.00
38289;BME280;24092;53.370;-6.588;2023-02-10T00:43:29;102788.35;;;-1.90;100.00
38289;BME280;24092;53.370;-6.588;2023-02-10T00:45:56;102785.09;;;-1.68;100.00
38289;BME280;24092;53.370;-6.588;2023-02-10T00:48:23;102780.37;;;-1.68;100.00
38289;BME280;24092;53.370;-6.588;2023-02-10T00:50:50;102781.69;;;-1.78;100.00
38289;BME280;24092;53.370;-6.588;2023-02-10T00:53:17;102781.86;;;-1.37;100.00
38289;BME280;24092;53.370;-6.588;2023-02-10T00:55:44;102782.69;;;-1.97;100.00
38289;BME280;24092;53.370;-6.588;2023-02-10T00:58:12;102780.67;;;-1.79;100.00
38289;BME280;24092;53.370;-6.588;2023-02-10T01:00:39;102779.34;;;-1.68;100.00
38289;BME280;24092;53.370;-6.588;2023-02-10T01:03:06;102782.45;;;-1.70;100.00
38289;BME280;24092;53.370;-6.588;2023-02-10T01:05:34;102783.28;;;-1.57;100.00
38289;BME280;24092;53.370;-6.588;2023-02-10T01:08:01;102774.48;;;-1.83;100.00
38289;BME280;24092;53.370;-6.588;2023-02-10T01:10:29;102767.97;;;-1.38;100.00
38289;BME280;24092;53.370;-6.588;2023-02-10T01:12:56;102763.72;;;-1.76;100.00
38289;BME280;24092;53.370;-6.588;2023-02-10T01:15:23;102759.07;;;-1.72;100.00
38289;BME280;24092;53.370;-6.588;2023-02-10T01:17:50;102757.82;;;-2.07;100.00
38289;BME280;24092;53.370;-6.588;2023-02-10T01:20:19;102753.02;;;-2.09;100.00
38289;BME280;24092;53.370;-6.588;2023-02-10T01:22:46;102756.92;;;-1.66;100.00
38289;BME280;24092;53.370;-6.588;2023-02-10T01:25:14;102757.48;;;-1.92;100.00
38289;BME280;24092;53.370;-6.588;2023-02-10T01:27:41;102749.77;;;-1.72;100.00
38289;BME280;24092;53.370;-6.588;2023-02-10T01:30:09;102741.40;;;-1.87;100.00
38289;BME280;24092;53.370;-6.588;2023-02-10T01:32:36;102743.33;;;-1.85;100.00
38289;BME280;24092;53.370;-6.588;2023-02-10T01:35:04;102739.47;;;-1.65;100.00
38289;BME280;24092;53.370;-6.588;2023-02-10T01:37:31;102737.59;;;-1.44;100.00
38289;BME280;24092;53.370;-6.588;2023-02-10T01:39:58;102734.96;;;-1.51;100.00
38289;BME280;24092;53.370;-6.588;2023-02-10T01:42:25;102727.47;;;-1.73;100.00
38289;BME280;24092;53.370;-6.588;2023-02-10T01:45:27;102718.39;;;-1.54;100.00
38289;BME280;24092;53.370;-6.588;2023-02-10T01:47:56;102714.25;;;-2.04;100.00
38289;BME280;24092;53.370;-6.588;2023-02-10T01:50:27;102717.38;;;-1.73;100.00
38289;BME280;24092;53.370;-6.588;2023-02-10T01:52:56;102710.14;;;-1.62;100.00
38289;BME280;24092;53.370;-6.588;2023-02-10T01:55:26;102706.71;;;-2.34;100.00
38289;BME280;24092;53.370;-6.588;2023-02-10T01:57:55;102707.62;;;-1.89;100.00
38289;BME280;24092;53.370;-6.588;2023-02-10T02:00:24;102707.82;;;-1.58;100.00
38289;BME280;24092;53.370;-6.588;2023-02-10T02:02:51;102703.41;;;-2.04;100.00
38289;BME280;24092;53.370;-6.588;2023-02-10T02:05:28;102706.95;;;-1.77;100.00
38289;BME280;24092;53.370;-6.588;2023-02-10T02:08:00;102699.68;;;-1.21;100.00
38289;BME280;24092;53.370;-6.588;2023-02-10T02:10:43;102694.83;;;-1.28;100.00
38289;BME280;24092;53.370;-6.588;2023-02-10T02:13:27;102688.74;;;-1.24;100.00
38289;BME280;24092;53.370;-6.588;2023-02-10T02:16:00;102686.59;;;-1.52;100.00
38289;BME280;24092;53.370;-6.588;2023-02-10T02:18:39;102687.66;;;-1.42;100.00
38289;BME280;24092;53.370;-6.588;2023-02-10T02:21:31;102684.40;;;-1.62;100.00
38289;BME280;24092;53.370;-6.588;2023-02-10T02:24:17;102677.67;;;-1.71;100.00
38289;BME280;24092;53.370;-6.588;2023-02-10T02:27:04;102670.81;;;-1.36;100.00
38289;BME280;24092;53.370;-6.588;2023-02-10T02:29:54;102672.48;;;-1.55;100.00
38289;BME280;24092;53.370;-6.588;2023-02-10T02:32:27;102670.21;;;-1.82;100.00
38289;BME280;24092;53.370;-6.588;2023-02-10T02:34:59;102668.73;;;-1.76;100.00
38289;BME280;24092;53.370;-6.588;2023-02-10T02:37:31;102662.15;;;-1.22;100.00
38289;BME280;24092;53.370;-6.588;2023-02-10T02:40:00;102660.68;;;-1.70;100.00
38289;BME280;24092;53.370;-6.588;2023-02-10T02:42:28;102658.90;;;-1.93;100.00
38289;BME280;24092;53.370;-6.588;2023-02-10T02:45:00;102651.71;;;-1.58;100.00
38289;BME280;24092;53.370;-6.588;2023-02-10T02:47:42;102644.76;;;-1.47;100.00
38289;BME280;24092;53.370;-6.588;2023-02-10T02:50:20;102641.35;;;-1.16;100.00
38289;BME280;24092;53.370;-6.588;2023-02-10T02:53:01;102636.33;;;-1.46;100.00
38289;BME280;24092;53.370;-6.588;2023-02-10T02:55:39;102632.35;;;-1.75;100.00
38289;BME280;24092;53.370;-6.588;2023-02-10T02:58:17;102640.71;;;-1.46;100.00
38289;BME280;24092;53.370;-6.588;2023-02-10T03:00:47;102646.76;;;-1.22;100.00
38289;BME280;24092;53.370;-6.588;2023-02-10T03:03:17;102654.41;;;-1.38;100.00
38289;BME280;24092;53.370;-6.588;2023-02-10T03:05:44;102656.88;;;-1.16;100.00
38289;BME280;24092;53.370;-6.588;2023-02-10T03:08:12;102656.82;;;-1.32;100.00
38289;BME280;24092;53.370;-6.588;2023-02-10T03:10:39;102656.40;;;-1.00;100.00
38289;BME280;24092;53.370;-6.588;2023-02-10T03:13:06;102659.90;;;-1.73;100.00
38289;BME280;24092;53.370;-6.588;2023-02-10T03:15:33;102656.35;;;-1.47;100.00
38289;BME280;24092;53.370;-6.588;2023-02-10T03:18:00;102654.69;;;-1.42;100.00
38289;BME280;24092;53.370;-6.588;2023-02-10T03:20:27;102652.12;;;-1.34;100.00
38289;BME280;24092;53.370;-6.588;2023-02-10T03:22:54;102646.26;;;-1.18;100.00
38289;BME280;24092;53.370;-6.588;2023-02-10T03:25:21;102637.89;;;-2.07;100.00
38289;BME280;24092;53.370;-6.588;2023-02-10T03:27:49;102641.63;;;-1.20;100.00
38289;BME280;24092;53.370;-6.588;2023-02-10T03:30:16;102643.54;;;-1.35;100.00
38289;BME280;24092;53.370;-6.588;2023-02-10T03:32:43;102640.00;;;-1.62;100.00
38289;BME280;24092;53.370;-6.588;2023-02-10T03:35:10;102641.72;;;-1.45;100.00
38289;BME280;24092;53.370;-6.588;2023-02-10T03:37:37;102639.11;;;-1.68;100.00
38289;BME280;24092;53.370;-6.588;2023-02-10T03:40:05;102634.88;;;-0.98;100.00
38289;BME280;24092;53.370;-6.588;2023-02-10T03:42:33;102635.21;;;-1.31;100.00
38289;BME280;24092;53.370;-6.588;2023-02-10T03:45:00;102630.14;;;-1.22;100.00
38289;BME280;24092;53.370;-6.588;2023-02-10T03:47:27;102622.09;;;-1.41;100.00
38289;BME280;24092;53.370;-6.588;2023-02-10T03:49:54;102622.14;;;-1.49;100.00
38289;BME280;24092;53.370;-6.588;2023-02-10T03:52:22;102617.42;;;-1.58;100.00
38289;BME280;24092;53.370;-6.588;2023-02-10T03:54:49;102612.59;;;-1.49;100.00
38289;BME280;24092;53.370;-6.588;2023-02-10T03:57:16;102606.44;;;-1.60;100.00
38289;BME280;24092;53.370;-6.588;2023-02-10T03:59:43;102600.93;;;-1.29;100.00
38289;BME280;24092;53.370;-6.588;2023-02-10T04:02:10;102598.77;;;-1.46;100.00
38289;BME280;24092;53.370;-6.588;2023-02-10T04:04:37;102595.33;;;-1.41;100.00
38289;BME280;24092;53.370;-6.588;2023-02-10T04:07:05;102597.10;;;-1.40;100.00
38289;BME280;24092;53.370;-6.588;2023-02-10T04:09:32;102599.24;;;-1.37;100.00
38289;BME280;24092;53.370;-6.588;2023-02-10T04:11:59;102595.37;;;-1.08;100.00
38289;BME280;24092;53.370;-6.588;2023-02-10T04:14:26;102594.27;;;-1.00;100.00
38289;BME280;24092;53.370;-6.588;2023-02-10T04:16:53;102593.74;;;-1.14;100.00
38289;BME280;24092;53.370;-6.588;2023-02-10T04:19:20;102590.17;;;-1.01;100.00
38289;BME280;24092;53.370;-6.588;2023-02-10T04:21:48;102591.94;;;-1.00;100.00
38289;BME280;24092;53.370;-6.588;2023-02-10T04:24:15;102587.47;;;-0.76;100.00
38289;BME280;24092;53.370;-6.588;2023-02-10T04:26:42;102587.88;;;-1.00;100.00
38289;BME280;24092;53.370;-6.588;2023-02-10T04:29:09;102584.85;;;-0.79;100.00
38289;BME280;24092;53.370;-6.588;2023-02-10T04:31:36;102588.90;;;-1.28;100.00
38289;BME280;24092;53.370;-6.588;2023-02-10T04:34:03;102586.26;;;-0.83;100.00
38289;BME280;24092;53.370;-6.588;2023-02-10T04:36:31;102580.94;;;-1.23;100.00
38289;BME280;24092;53.370;-6.588;2023-02-10T04:38:59;102575.24;;;-0.90;100.00
38289;BME280;24092;53.370;-6.588;2023-02-10T04:41:25;102580.21;;;-0.93;100.00
38289;BME280;24092;53.370;-6.588;2023-02-10T04:43:52;102577.31;;;-0.99;100.00
38289;BME280;24092;53.370;-6.588;2023-02-10T04:46:21;102579.11;;;-0.99;100.00
38289;BME280;24092;53.370;-6.588;2023-02-10T04:48:48;102579.82;;;-0.96;100.00
38289;BME280;24092;53.370;-6.588;2023-02-10T04:51:15;102577.87;;;-0.70;100.00
38289;BME280;24092;53.370;-6.588;2023-02-10T04:53:42;102574.02;;;-0.97;100.00
38289;BME280;24092;53.370;-6.588;2023-02-10T04:56:09;102573.50;;;-0.83;100.00
38289;BME280;24092;53.370;-6.588;2023-02-10T04:58:36;102571.03;;;-0.81;100.00
38289;BME280;24092;53.370;-6.588;2023-02-10T05:01:04;102573.60;;;-1.22;100.00
38289;BME280;24092;53.370;-6.588;2023-02-10T05:03:31;102570.20;;;-0.55;100.00
38289;BME280;24092;53.370;-6.588;2023-02-10T05:05:58;102568.44;;;-0.64;100.00
38289;BME280;24092;53.370;-6.588;2023-02-10T05:08:25;102567.61;;;-0.81;100.00
38289;BME280;24092;53.370;-6.588;2023-02-10T05:10:53;102568.96;;;-0.81;100.00
38289;BME280;24092;53.370;-6.588;2023-02-10T05:13:20;102563.97;;;-1.08;100.00
38289;BME280;24092;53.370;-6.588;2023-02-10T05:15:47;102564.27;;;-0.70;100.00
38289;BME280;24092;53.370;-6.588;2023-02-10T05:18:15;102573.15;;;-0.74;100.00
38289;BME280;24092;53.370;-6.588;2023-02-10T05:20:42;102570.99;;;-0.79;100.00
38289;BME280;24092;53.370;-6.588;2023-02-10T05:23:09;102570.20;;;-1.31;100.00
38289;BME280;24092;53.370;-6.588;2023-02-10T05:25:36;102573.37;;;-1.00;100.00
38289;BME280;24092;53.370;-6.588;2023-02-10T05:28:03;102571.50;;;-0.76;100.00
38289;BME280;24092;53.370;-6.588;2023-02-10T05:30:30;102569.28;;;-0.92;100.00
38289;BME280;24092;53.370;-6.588;2023-02-10T05:32:58;102564.01;;;-0.73;100.00
38289;BME280;24092;53.370;-6.588;2023-02-10T05:35:25;102571.17;;;-0.54;100.00
38289;BME280;24092;53.370;-6.588;2023-02-10T05:37:52;102568.46;;;-0.58;100.00
38289;BME280;24092;53.370;-6.588;2023-02-10T05:40:20;102569.69;;;-0.30;100.00
38289;BME280;24092;53.370;-6.588;2023-02-10T05:42:47;102566.97;;;-0.60;100.00
38289;BME280;24092;53.370;-6.588;2023-02-10T05:45:16;102565.83;;;-0.17;100.00
38289;BME280;24092;53.370;-6.588;2023-02-10T05:47:43;102565.80;;;-0.12;100.00
38289;BME280;24092;53.370;-6.588;2023-02-10T05:50:10;102565.81;;;-0.39;100.00
38289;BME280;24092;53.370;-6.588;2023-02-10T05:52:38;102573.86;;;0.04;100.00
38289;BME280;24092;53.370;-6.588;2023-02-10T05:55:06;102567.59;;;-0.71;100.00
38289;BME280;24092;53.370;-6.588;2023-02-10T05:57:34;102571.52;;;-0.49;100.00
38289;BME280;24092;53.370;-6.588;2023-02-10T06:00:02;102568.57;;;-0.54;100.00
38289;BME280;24092;53.370;-6.588;2023-02-10T06:02:29;102563.14;;;0.01;100.00
38289;BME280;24092;53.370;-6.588;2023-02-10T06:04:56;102559.24;;;-0.40;100.00
38289;BME280;24092;53.370;-6.588;2023-02-10T06:07:23;102565.41;;;-0.32;100.00
38289;BME280;24092;53.370;-6.588;2023-02-10T06:09:51;102561.58;;;-0.33;100.00
38289;BME280;24092;53.370;-6.588;2023-02-10T06:12:18;102561.82;;;-0.48;100.00
38289;BME280;24092;53.370;-6.588;2023-02-10T06:14:45;102557.39;;;0.14;100.00
38289;BME280;24092;53.370;-6.588;2023-02-10T06:17:12;102559.96;;;-0.27;100.00
38289;BME280;24092;53.370;-6.588;2023-02-10T06:19:40;102564.49;;;-0.58;100.00
38289;BME280;24092;53.370;-6.588;2023-02-10T06:22:07;102568.49;;;-0.40;100.00
38289;BME280;24092;53.370;-6.588;2023-02-10T06:24:36;102576.93;;;0.34;100.00
38289;BME280;24092;53.370;-6.588;2023-02-10T06:27:03;102568.55;;;0.34;100.00
38289;BME280;24092;53.370;-6.588;2023-02-10T06:29:31;102579.11;;;0.06;100.00
38289;BME280;24092;53.370;-6.588;2023-02-10T06:31:58;102576.08;;;-0.09;100.00
38289;BME280;24092;53.370;-6.588;2023-02-10T06:34:25;102571.26;;;-0.10;100.00
38289;BME280;24092;53.370;-6.588;2023-02-10T06:36:52;102572.88;;;-0.06;100.00
38289;BME280;24092;53.370;-6.588;2023-02-10T06:39:19;102574.50;;;-0.06;100.00
38289;BME280;24092;53.370;-6.588;2023-02-10T06:41:46;102577.15;;;-0.11;100.00
38289;BME280;24092;53.370;-6.588;2023-02-10T06:44:13;102571.77;;;-0.34;100.00
38289;BME280;24092;53.370;-6.588;2023-02-10T06:46:40;102568.74;;;0.11;100.00
38289;BME280;24092;53.370;-6.588;2023-02-10T06:49:08;102569.78;;;-0.13;100.00
38289;BME280;24092;53.370;-6.588;2023-02-10T06:51:35;102565.92;;;0.38;100.00
38289;BME280;24092;53.370;-6.588;2023-02-10T06:54:02;102565.14;;;0.23;100.00
38289;BME280;24092;53.370;-6.588;2023-02-10T06:56:29;102571.69;;;0.22;100.00
38289;BME280;24092;53.370;-6.588;2023-02-10T06:58:56;102570.70;;;0.02;100.00
38289;BME280;24092;53.370;-6.588;2023-02-10T07:01:23;102570.11;;;0.01;100.00
38289;BME280;24092;53.370;-6.588;2023-02-10T07:03:50;102581.17;;;0.44;100.00
38289;BME280;24092;53.370;-6.588;2023-02-10T07:06:17;102584.60;;;0.15;100.00
38289;BME280;24092;53.370;-6.588;2023-02-10T07:08:45;102586.23;;;0.31;100.00
38289;BME280;24092;53.370;-6.588;2023-02-10T07:11:12;102587.68;;;0.16;100.00
38289;BME280;24092;53.370;-6.588;2023-02-10T07:13:39;102581.60;;;-0.18;100.00
38289;BME280;24092;53.370;-6.588;2023-02-10T07:16:06;102584.27;;;-0.08;100.00
38289;BME280;24092;53.370;-6.588;2023-02-10T07:18:33;102588.28;;;0.66;100.00
38289;BME280;24092;53.370;-6.588;2023-02-10T07:21:00;102596.24;;;0.07;100.00
38289;BME280;24092;53.370;-6.588;2023-02-10T07:23:27;102594.21;;;0.32;100.00
38289;BME280;24092;53.370;-6.588;2023-02-10T07:25:54;102602.80;;;0.42;100.00
38289;BME280;24092;53.370;-6.588;2023-02-10T07:28:22;102600.40;;;0.33;100.00
38289;BME280;24092;53.370;-6.588;2023-02-10T07:30:49;102600.32;;;0.41;100.00
38289;BME280;24092;53.370;-6.588;2023-02-10T07:33:16;102597.08;;;0.30;100.00
38289;BME280;24092;53.370;-6.588;2023-02-10T07:35:43;102597.61;;;0.11;100.00
38289;BME280;24092;53.370;-6.588;2023-02-10T07:38:10;102596.58;;;0.18;100.00
38289;BME280;24092;53.370;-6.588;2023-02-10T07:40:37;102590.74;;;0.02;100.00
38289;BME280;24092;53.370;-6.588;2023-02-10T07:43:05;102588.26;;;0.08;100.00
38289;BME280;24092;53.370;-6.588;2023-02-10T07:45:32;102595.30;;;0.41;100.00
38289;BME280;24092;53.370;-6.588;2023-02-10T07:47:59;102595.40;;;0.48;100.00
38289;BME280;24092;53.370;-6.588;2023-02-10T07:50:26;102597.56;;;0.56;100.00
38289;BME280;24092;53.370;-6.588;2023-02-10T07:52:53;102600.99;;;0.49;100.00
38289;BME280;24092;53.370;-6.588;2023-02-10T07:55:20;102598.33;;;0.64;100.00
38289;BME280;24092;53.370;-6.588;2023-02-10T07:57:47;102601.65;;;0.64;100.00
38289;BME280;24092;53.370;-6.588;2023-02-10T08:00:15;102601.61;;;0.33;100.00
38289;BME280;24092;53.370;-6.588;2023-02-10T08:02:42;102603.61;;;0.75;100.00
38289;BME280;24092;53.370;-6.588;2023-02-10T08:05:10;102605.47;;;0.54;100.00
38289;BME280;24092;53.370;-6.588;2023-02-10T08:07:37;102611.80;;;0.42;100.00
38289;BME280;24092;53.370;-6.588;2023-02-10T08:10:05;102614.25;;;0.88;100.00
38289;BME280;24092;53.370;-6.588;2023-02-10T08:12:33;102611.02;;;1.28;100.00
38289;BME280;24092;53.370;-6.588;2023-02-10T08:15:00;102611.53;;;1.02;100.00
38289;BME280;24092;53.370;-6.588;2023-02-10T08:17:27;102611.38;;;0.75;100.00
38289;BME280;24092;53.370;-6.588;2023-02-10T08:19:55;102615.18;;;0.53;100.00
38289;BME280;24092;53.370;-6.588;2023-02-10T08:22:22;102616.85;;;0.72;100.00
38289;BME280;24092;53.370;-6.588;2023-02-10T08:24:49;102615.49;;;0.39;100.00
38289;BME280;24092;53.370;-6.588;2023-02-10T08:27:16;102609.19;;;0.83;100.00
38289;BME280;24092;53.370;-6.588;2023-02-10T08:29:43;102609.48;;;1.28;100.00
38289;BME280;24092;53.370;-6.588;2023-02-10T08:32:11;102610.83;;;1.09;100.00
38289;BME280;24092;53.370;-6.588;2023-02-10T08:34:38;102609.07;;;1.00;100.00
38289;BME280;24092;53.370;-6.588;2023-02-10T08:37:04;102610.11;;;0.97;100.00
38289;BME280;24092;53.370;-6.588;2023-02-10T08:39:32;102615.57;;;1.04;100.00
38289;BME280;24092;53.370;-6.588;2023-02-10T08:41:59;102621.68;;;1.24;100.00
38289;BME280;24092;53.370;-6.588;2023-02-10T08:44:26;102625.35;;;1.14;100.00
38289;BME280;24092;53.370;-6.588;2023-02-10T08:46:53;102620.00;;;0.87;100.00
38289;BME280;24092;53.370;-6.588;2023-02-10T08:49:20;102624.65;;;1.00;100.00
38289;BME280;24092;53.370;-6.588;2023-02-10T08:51:47;102620.94;;;0.95;100.00
38289;BME280;24092;53.370;-6.588;2023-02-10T08:54:14;102625.69;;;1.45;100.00
38289;BME280;24092;53.370;-6.588;2023-02-10T08:56:41;102625.82;;;1.01;100.00
38289;BME280;24092;53.370;-6.588;2023-02-10T08:59:08;102629.15;;;1.60;100.00
38289;BME280;24092;53.370;-6.588;2023-02-10T09:01:35;102635.69;;;1.34;100.00
38289;BME280;24092;53.370;-6.588;2023-02-10T09:04:04;102633.77;;;1.01;100.00
38289;BME280;24092;53.370;-6.588;2023-02-10T09:06:33;102640.55;;;1.57;100.00
38289;BME280;24092;53.370;-6.588;2023-02-10T09:09:01;102645.41;;;1.24;100.00
38289;BME280;24092;53.370;-6.588;2023-02-10T09:11:28;102646.59;;;1.29;100.00
38289;BME280;24092;53.370;-6.588;2023-02-10T09:13:55;102648.70;;;1.38;100.00
38289;BME280;24092;53.370;-6.588;2023-02-10T09:16:22;102651.31;;;1.31;100.00
38289;BME280;24092;53.370;-6.588;2023-02-10T09:18:50;102656.10;;;1.53;100.00
38289;BME280;24092;53.370;-6.588;2023-02-10T09:21:17;102656.67;;;1.25;100.00
38289;BME280;24092;53.370;-6.588;2023-02-10T09:23:44;102657.45;;;1.11;100.00
38289;BME280;24092;53.370;-6.588;2023-02-10T09:26:12;102660.52;;;1.73;100.00
38289;BME280;24092;53.370;-6.588;2023-02-10T09:28:39;102664.66;;;2.00;100.00
38289;BME280;24092;53.370;-6.588;2023-02-10T09:31:08;102665.11;;;1.53;100.00
38289;BME280;24092;53.370;-6.588;2023-02-10T09:33:35;102664.21;;;1.29;100.00
38289;BME280;24092;53.370;-6.588;2023-02-10T09:36:03;102664.63;;;1.52;100.00
38289;BME280;24092;53.370;-6.588;2023-02-10T09:38:31;102664.33;;;1.98;100.00
38289;BME280;24092;53.370;-6.588;2023-02-10T09:41:05;102668.66;;;1.46;100.00
38289;BME280;24092;53.370;-6.588;2023-02-10T09:43:53;102667.63;;;1.68;100.00
38289;BME280;24092;53.370;-6.588;2023-02-10T09:46:30;102663.85;;;1.56;100.00
38289;BME280;24092;53.370;-6.588;2023-02-10T09:49:13;102666.42;;;1.85;100.00
38289;BME280;24092;53.370;-6.588;2023-02-10T09:51:52;102660.36;;;1.72;100.00
38289;BME280;24092;53.370;-6.588;2023-02-10T09:54:23;102658.85;;;1.99;100.00
38289;BME280;24092;53.370;-6.588;2023-02-10T09:56:51;102661.05;;;1.62;100.00
38289;BME280;24092;53.370;-6.588;2023-02-10T09:59:21;102660.54;;;1.32;100.00
38289;BME280;24092;53.370;-6.588;2023-02-10T10:01:51;102659.45;;;1.15;100.00
38289;BME280;24092;53.370;-6.588;2023-02-10T10:04:22;102658.85;;;1.49;100.00
38289;BME280;24092;53.370;-6.588;2023-02-10T10:06:52;102658.13;;;1.22;100.00
38289;BME280;24092;53.370;-6.588;2023-02-10T10:09:29;102654.99;;;1.43;100.00
38289;BME280;24092;53.370;-6.588;2023-02-10T10:11:59;102660.14;;;1.23;100.00
38289;BME280;24092;53.370;-6.588;2023-02-10T10:14:27;102662.06;;;1.43;100.00
38289;BME280;24092;53.370;-6.588;2023-02-10T10:17:10;102659.97;;;1.53;100.00
38289;BME280;24092;53.370;-6.588;2023-02-10T10:19:55;102659.88;;;1.72;100.00
38289;BME280;24092;53.370;-6.588;2023-02-10T10:22:38;102660.32;;;1.17;100.00
38289;BME280;24092;53.370;-6.588;2023-02-10T10:25:22;102659.47;;;1.59;100.00
38289;BME280;24092;53.370;-6.588;2023-02-10T10:28:01;102661.45;;;1.81;100.00
38289;BME280;24092;53.370;-6.588;2023-02-10T10:30:38;102661.04;;;1.60;100.00
38289;BME280;24092;53.370;-6.588;2023-02-10T10:33:22;102660.73;;;1.78;100.00
38289;BME280;24092;53.370;-6.588;2023-02-10T10:35:51;102662.21;;;1.61;100.00
38289;BME280;24092;53.370;-6.588;2023-02-10T10:38:21;102661.57;;;1.52;100.00
38289;BME280;24092;53.370;-6.588;2023-02-10T10:40:52;102662.77;;;2.04;100.00
38289;BME280;24092;53.370;-6.588;2023-02-10T10:43:24;102670.06;;;1.80;100.00
38289;BME280;24092;53.370;-6.588;2023-02-10T10:45:56;102665.61;;;2.08;100.00
38289;BME280;24092;53.370;-6.588;2023-02-10T10:48:27;102669.23;;;2.07;100.00
38289;BME280;24092;53.370;-6.588;2023-02-10T10:51:01;102674.07;;;2.16;100.00
38289;BME280;24092;53.370;-6.588;2023-02-10T10:53:37;102673.92;;;2.22;100.00
38289;BME280;24092;53.370;-6.588;2023-02-10T10:56:13;102671.88;;;2.27;100.00
38289;BME280;24092;53.370;-6.588;2023-02-10T10:58:44;102672.89;;;2.10;100.00
38289;BME280;24092;53.370;-6.588;2023-02-10T11:01:15;102672.94;;;2.44;100.00
38289;BME280;24092;53.370;-6.588;2023-02-10T11:03:43;102673.48;;;2.42;100.00
38289;BME280;24092;53.370;-6.588;2023-02-10T11:06:12;102669.98;;;2.41;100.00
38289;BME280;24092;53.370;-6.588;2023-02-10T11:08:45;102669.02;;;2.41;100.00
38289;BME280;24092;53.370;-6.588;2023-02-10T11:11:19;102671.72;;;2.58;100.00
38289;BME280;24092;53.370;-6.588;2023-02-10T11:13:53;102676.17;;;2.40;100.00
38289;BME280;24092;53.370;-6.588;2023-02-10T11:16:22;102677.24;;;3.18;100.00
38289;BME280;24092;53.370;-6.588;2023-02-10T11:18:53;102678.99;;;3.15;100.00
38289;BME280;24092;53.370;-6.588;2023-02-10T11:21:31;102677.11;;;2.76;100.00
38289;BME280;24092;53.370;-6.588;2023-02-10T11:24:01;102678.18;;;3.42;100.00
38289;BME280;24092;53.370;-6.588;2023-02-10T11:26:31;102676.25;;;3.30;100.00
38289;BME280;24092;53.370;-6.588;2023-02-10T11:29:09;102674.93;;;3.35;100.00
38289;BME280;24092;53.370;-6.588;2023-02-10T11:31:36;102686.62;;;2.99;100.00
38289;BME280;24092;53.370;-6.588;2023-02-10T11:34:15;102681.55;;;3.09;100.00
38289;BME280;24092;53.370;-6.588;2023-02-10T11:36:46;102678.31;;;3.04;100.00
38289;BME280;24092;53.370;-6.588;2023-02-10T11:39:20;102675.16;;;3.41;100.00
38289;BME280;24092;53.370;-6.588;2023-02-10T11:41:50;102679.32;;;3.34;100.00
38289;BME280;24092;53.370;-6.588;2023-02-10T11:44:25;102684.11;;;3.56;100.00
38289;BME280;24092;53.370;-6.588;2023-02-10T11:46:58;102684.80;;;3.29;100.00
38289;BME280;24092;53.370;-6.588;2023-02-10T11:49:27;102678.50;;;3.73;100.00
38289;BME280;24092;53.370;-6.588;2023-02-10T11:51:56;102675.81;;;3.35;100.00
38289;BME280;24092;53.370;-6.588;2023-02-10T11:54:24;102671.75;;;3.40;100.00
38289;BME280;24092;53.370;-6.588;2023-02-10T11:57:00;102663.40;;;3.63;100.00
38289;BME280;24092;53.370;-6.588;2023-02-10T11:59:35;102660.58;;;3.69;100.00
38289;BME280;24092;53.370;-6.588;2023-02-10T12:02:15;102660.00;;;3.33;100.00
38289;BME280;24092;53.370;-6.588;2023-02-10T12:04:57;102655.85;;;3.48;100.00
38289;BME280;24092;53.370;-6.588;2023-02-10T12:07:37;102653.68;;;3.79;100.00
38289;BME280;24092;53.370;-6.588;2023-02-10T12:10:17;102654.17;;;3.89;100.00
38289;BME280;24092;53.370;-6.588;2023-02-10T12:12:54;102649.45;;;3.82;100.00
38289;BME280;24092;53.370;-6.588;2023-02-10T12:15:33;102651.72;;;3.93;100.00
38289;BME280;24092;53.370;-6.588;2023-02-10T12:18:14;102651.78;;;4.45;100.00
38289;BME280;24092;53.370;-6.588;2023-02-10T12:20:51;102649.77;;;3.99;100.00
38289;BME280;24092;53.370;-6.588;2023-02-10T12:23:42;102650.87;;;4.06;100.00
38289;BME280;24092;53.370;-6.588;2023-02-10T12:26:15;102644.43;;;4.54;100.00
38289;BME280;24092;53.370;-6.588;2023-02-10T12:28:54;102640.67;;;4.39;100.00
38289;BME280;24092;53.370;-6.588;2023-02-10T12:31:31;102639.56;;;4.13;100.00
38289;BME280;24092;53.370;-6.588;2023-02-10T12:34:16;102635.95;;;4.51;100.00
38289;BME280;24092;53.370;-6.588;2023-02-10T12:36:49;102627.54;;;4.64;100.00
38289;BME280;24092;53.370;-6.588;2023-02-10T12:39:29;102619.92;;;4.34;100.00
38289;BME280;24092;53.370;-6.588;2023-02-10T12:42:06;102616.36;;;4.60;100.00
38289;BME280;24092;53.370;-6.588;2023-02-10T12:44:49;102617.55;;;4.40;100.00
38289;BME280;24092;53.370;-6.588;2023-02-10T12:47:29;102616.20;;;4.85;100.00
38289;BME280;24092;53.370;-6.588;2023-02-10T12:50:20;102616.36;;;4.97;100.00